• Join FlightAware (Why Join?)
  • Login
  • US Flag 
09:26PM EDT


 

Airport Tracker/Info


-or-


 

Live Flight TrackerFlight Track Log ✈ N225SB ✈ 15-Sep-2013 ✈ KLGA - KFTY

Flight Track Log - Related Links

Times and Time Zones

All times are in EDT time to prevent confusion due to time zone crossing. See the N225SB flight status page for this flight to view local times or setup timezone preferences in your user account.

Time Position Orientation Groundspeed Altitude Reporting Facility
EDT Latitude Longitude Course Direction KTS MPH feet Rate Location/Type
02:33PM 40.8689 -73.9486 233° Southwest 226 260 5,200  Level New York Center
02:34PM 40.8772 -74.0258 278° West 244 281 8,400 2,940 Climbing New York Center
02:35PM 40.8728 -74.1053 266° West 256 295 11,100 2,160 Climbing New York Center
02:36PM 40.8431 -74.1997 247° West 298 343 12,800 1,740 Climbing New York Center
02:37PM 40.8042 -74.3211 247° West 323 372 14,600 1,560 Climbing New York Center
02:38PM 40.4114 -74.5253 233° Southwest  Level Estimated
02:38PM 40.7700 -74.4100 243° Southwest 352 405 16,000  Level New York Center
02:39PM 40.7286 -74.5419 248° West 352 405 17,000 780 Climbing New York Center
02:40PM 40.6894 -74.6572 246° West 377 434 17,600 720 Climbing New York Center
02:41PM 40.6411 -74.7942 245° Southwest 377 434 18,500 900 Climbing New York Center
02:42PM 40.6017 -74.9094 246° West 382 440 19,400 960 Climbing New York Center
02:43PM 40.5575 -75.0322 245° Southwest 382 440 20,500 1,200 Climbing New York Center
02:44PM 40.4908 -75.1456 232° Southwest 382 440 21,800 1,320 Climbing New York Center
02:45PM 40.4225 -75.2503 229° Southwest 388 447 23,200 1,320 Climbing New York Center
02:46PM 40.3558 -75.3575 231° Southwest 394 453 24,500 1,680 Climbing New York Center
02:48PM 40.2203 -75.5661 230° Southwest 368 423 28,400 1,620 Climbing New York Center
02:49PM 40.1700 -75.6714 238° Southwest 354 407 29,400 1,020 Climbing New York Center
02:50PM 40.1136 -75.7786 236° Southwest 348 400 30,500 900 Climbing New York Center
02:51PM 40.0608 -75.8861 237° Southwest 348 400 31,200 600 Climbing New York Center
02:52PM 40.0042 -75.9956 236° Southwest 361 415 31,800 600 Climbing New York Center
02:53PM 39.9489 -76.1081 237° Southwest 366 421 32,500 600 Climbing New York Center
02:54PM 39.8950 -76.1958 231° Southwest 373 429 33,000 600 Climbing New York Center
02:55PM 39.8097 -76.3217 229° Southwest 391 450 33,800 660 Climbing New York Center
02:56PM 39.7381 -76.4294 229° Southwest 396 456 34,400 540 Climbing New York Center
02:57PM 39.6492 -76.5644 229° Southwest 399 459 35,200 540 Climbing Washington Center
02:58PM 39.5797 -76.6711 230° Southwest 394 453 35,800 600 Climbing Washington Center
02:59PM 39.5058 -76.7778 228° Southwest 394 453 36,400 600 Climbing Washington Center
03:00PM 39.4381 -76.8842 231° Southwest 394 453 37,000 600 Climbing Washington Center
03:01PM 39.3658 -76.9928 229° Southwest 394 453 37,700 600 Climbing Washington Center
03:02PM 39.2936 -77.0986 229° Southwest 399 459 38,200 540 Climbing Washington Center
03:03PM 39.2214 -77.2044 229° Southwest 399 459 38,800 600 Climbing Washington Center
03:04PM 39.1514 -77.3100 229° Southwest 399 459 39,500 540 Climbing Washington Center
03:05PM 39.0808 -77.4125 228° Southwest 399 459 40,000 300 Climbing Washington Center
03:06PM 39.0106 -77.5178 229° Southwest 399 459 40,100  Climbing Washington Center
03:07PM 38.9253 -77.6408 228° Southwest 410 472 40,000 -60 Descending Washington Center
03:08PM 38.8567 -77.7375 228° Southwest 410 472 40,000  Level Washington Center
03:09PM 38.7711 -77.8656 229° Southwest 418 481 40,000  Level Washington Center
03:10PM 38.6958 -77.9750 229° Southwest 424 488 40,000  Level Washington Center
03:11PM 38.6186 -78.0867 229° Southwest 424 488 40,000  Level Washington Center
03:12PM 38.5411 -78.1983 228° Southwest 424 488 40,000  Level Washington Center
03:13PM 38.4614 -78.3122 228° Southwest 430 495 40,000  Level Washington Center
03:14PM 38.3839 -78.4206 228° Southwest 425 489 40,000  Level Washington Center
03:15PM 38.3061 -78.5367 230° Southwest 425 489 40,000  Level Washington Center
03:16PM 38.2389 -78.6397 230° Southwest 419 482 40,000  Level Washington Center
03:17PM 38.1589 -78.7500 227° Southwest 419 482 40,000  Level Washington Center
03:18PM 38.0786 -78.8628 228° Southwest 426 490 40,000  Level Washington Center
03:19PM 37.9961 -78.9778 228° Southwest 431 496 40,000  Level Washington Center
03:20PM 37.9092 -79.1028 229° Southwest 437 503 40,000  Level Washington Center
03:21PM 37.8267 -79.2147 227° Southwest 437 503 40,000  Level Washington Center
03:22PM 37.7461 -79.3264 228° Southwest 432 497 40,000  Level Washington Center
03:23PM 37.6697 -79.4303 227° Southwest 440 506 40,000  Level Washington Center
03:24PM 37.5781 -79.5539 227° Southwest 440 506 40,000  Level Washington Center
03:25PM 37.5058 -79.6575 229° Southwest 445 512 40,000  Level Washington Center
03:27PM 37.2953 -79.9406 227° Southwest 448 516 40,000  Level Atlanta Center
03:28PM 37.2192 -80.0408 226° Southwest 448 516 40,000  Level Atlanta Center
03:29PM 37.1353 -80.1544 227° Southwest 442 509 40,000  Level Atlanta Center
03:30PM 37.0514 -80.2678 227° Southwest 442 509 40,000  Level Atlanta Center
03:31PM 36.9592 -80.3892 226° Southwest 442 509 40,000  Level Atlanta Center
03:32PM 36.8750 -80.5047 228° Southwest 442 509 40,000  Level Atlanta Center
03:33PM 36.7883 -80.6172 226° Southwest 442 509 40,000  Level Atlanta Center
03:34PM 36.7144 -80.7292 231° Southwest 428 493 40,000  Level Atlanta Center
03:35PM 36.6442 -80.8383 231° Southwest 438 504 40,000  Level Atlanta Center
03:36PM 36.5681 -80.9575 232° Southwest 438 504 40,000  Level Atlanta Center
03:37PM 36.4856 -81.0797 230° Southwest 449 517 40,000  Level Atlanta Center
03:38PM 36.4092 -81.2011 232° Southwest 454 522 40,000  Level Atlanta Center
03:39PM 36.3286 -81.3200 230° Southwest 454 522 40,000  Level Atlanta Center
03:40PM 36.2497 -81.4383 230° Southwest 454 522 40,000  Level Atlanta Center
03:41PM 36.1689 -81.5594 230° Southwest 454 522 40,000  Level Atlanta Center
03:42PM 36.0897 -81.6800 231° Southwest 454 522 40,000  Level Atlanta Center
03:43PM 36.0108 -81.8003 231° Southwest 454 522 40,000  Level Atlanta Center
03:44PM 35.9272 -81.9181 229° Southwest 454 522 40,000 -300 Level Atlanta Center
03:45PM 35.8458 -82.0381 230° Southwest 454 522 39,400 -1,080 Descending Atlanta Center
03:46PM 35.7561 -82.1706 230° Southwest 454 522 37,900 -1,440 Descending Atlanta Center
03:47PM 35.6767 -82.2900 231° Southwest 460 529 36,600 -1,500 Descending Atlanta Center
03:48PM 35.5967 -82.4042 229° Southwest 455 524 35,000 -1,140 Descending Atlanta Center
03:49PM 35.5169 -82.5206 230° Southwest 450 518 34,400 -1,200 Descending Atlanta Center
03:50PM 35.4369 -82.6317 229° Southwest 440 506 32,700 -1,860 Descending Atlanta Center
03:51PM 35.3567 -82.7475 230° Southwest 440 506 30,700 -2,040 Descending Atlanta Center
03:52PM 35.2744 -82.8633 229° Southwest 440 506 28,700 -1,980 Descending Atlanta Center
03:53PM 35.1942 -82.9789 230° Southwest 440 506 26,800 -1,860 Descending Atlanta Center
03:54PM 35.1261 -83.0739 229° Southwest 440 506 25,000 -1,800 Descending Atlanta Center
03:55PM 35.0497 -83.1836 230° Southwest 434 499 23,200 -1,800 Descending Atlanta Center
03:56PM 34.9772 -83.2858 229° Southwest 423 487 21,500 -1,680 Descending Atlanta Center
03:57PM 34.9006 -83.3778 225° Southwest 407 468 19,900 -1,680 Descending Atlanta Center
03:58PM 34.8219 -83.4694 224° Southwest 394 453 18,200 -1,620 Descending Atlanta Center
03:59PM 34.7514 -83.5558 225° Southwest 377 434 16,700 -1,740 Descending Atlanta Center
04:00PM 34.6744 -83.6422 223° Southwest 358 412 14,800 -1,800 Descending Atlanta Center
04:01PM 34.6036 -83.7283 225° Southwest 350 403 13,200 -1,560 Descending Atlanta Center
04:02PM 34.5392 -83.8069 225° Southwest 350 403 11,700 -1,380 Descending Atlanta Center
04:03PM 34.4744 -83.8825 224° Southwest 330 380 10,500 -1,020 Descending Atlanta Center
04:04PM 34.4225 -83.9456 225° Southwest 312 359 9,700 -900 Descending Atlanta Center
04:05PM 34.3683 -84.0086 224° Southwest 288 331 8,800 -900 Descending Atlanta Center
04:06PM 34.3119 -84.0714 223° Southwest 278 320 8,000 -480 Descending Atlanta Center
04:07PM 34.2492 -84.1117 208° Southwest 273 314 7,900 -600 Descending Atlanta Center
04:08PM 34.2011 -84.1844 231° Southwest 261 300 6,900 -960 Descending Atlanta Center
04:09PM 34.1636 -84.2522 236° Southwest 256 295 6,000 -480 Descending Atlanta Center
04:10PM 34.1278 -84.3172 236° Southwest 246 283 6,000  Level Atlanta Center
04:11PM 34.1000 -84.3667 236° Southwest 214 246 6,000  Level Atlanta TRACON
04:12PM 34.0667 -84.4167 231° Southwest 204 235 6,000 -420 Level Atlanta TRACON
04:13PM 34.0333 -84.4667 231° Southwest 211 243 5,200 -1,020 Descending Atlanta TRACON
04:14PM 34.0000 -84.5333 239° Southwest 226 260 4,000 -960 Descending Atlanta TRACON
04:15PM 33.9500 -84.5667 209° Southwest 208 239 3,300 -540 Descending Atlanta TRACON
04:16PM 33.9000 -84.6000 209° Southwest 193 222 3,000 -420 Descending Atlanta TRACON
04:17PM 33.8500 -84.6167 195° South 182 209 2,500 -300 Descending Atlanta TRACON
04:18PM 33.8167 -84.6167 180° South 153 176 2,400 -300 Descending Atlanta TRACON
04:19PM 33.7833 -84.6000 157° South 142 163 1,900 -600 Descending Atlanta TRACON
04:20PM 33.7833 -84.5500 90° East 130 150 1,300 -600 Descending Atlanta TRACON
04:22PM 33.7791 -84.5214 135° Southeast  Level Estimated
04:29PM 33.7791 -84.5214 135° Southeast  Level Estimated